createdAt,value
2022-08-05T00:00:18.339Z,101284.56
2022-08-05T00:02:50.825Z,101283.22
2022-08-05T00:06:03.096Z,101267.38
2022-08-05T00:08:32.530Z,101266.63
2022-08-05T00:11:01.696Z,101284.13
2022-08-05T00:13:39.634Z,101280.28
2022-08-05T00:16:12.299Z,101272.34
2022-08-05T00:18:46.441Z,101273.88
2022-08-05T00:21:17.648Z,101276.03
2022-08-05T00:23:53.758Z,101276.19
2022-08-05T00:26:34.798Z,101282.88
2022-08-05T00:29:02.110Z,101283.84
2022-08-05T00:31:54.035Z,101285.38
2022-08-05T00:34:56.798Z,101296.53
2022-08-05T00:37:12.517Z,101297.97
2022-08-05T00:39:58.153Z,101293.34
2022-08-05T00:42:42.397Z,101292.41
2022-08-05T00:45:15.360Z,101288.41
2022-08-05T00:47:57.246Z,101291.25
2022-08-05T00:50:29.400Z,101288.06
2022-08-05T00:52:56.408Z,101272.59
2022-08-05T00:55:33.971Z,101276.63
2022-08-05T00:58:13.916Z,101273.94
2022-08-05T01:00:42.102Z,101282.72
2022-08-05T01:03:15.000Z,101292.34
2022-08-05T01:05:49.483Z,101280.25
2022-08-05T01:08:39.899Z,101305.16
2022-08-05T01:11:33.296Z,101318.25
2022-08-05T01:14:28.769Z,101334.84
2022-08-05T01:17:21.714Z,101345.75
2022-08-05T01:20:14.530Z,101356.28
2022-08-05T01:22:54.114Z,101376.69
2022-08-05T01:26:05.094Z,101390.75
2022-08-05T01:28:43.737Z,101391.00
2022-08-05T01:31:42.802Z,101386.25
2022-08-05T01:34:35.922Z,101380.56
2022-08-05T01:37:24.378Z,101377.91
2022-08-05T01:39:58.764Z,101376.97
2022-08-05T01:42:27.879Z,101378.88
2022-08-05T01:44:59.876Z,101389.59
2022-08-05T01:47:39.442Z,101388.84
2022-08-05T01:50:28.596Z,101382.38
2022-08-05T01:53:01.467Z,101355.03
2022-08-05T01:55:36.032Z,101333.78
2022-08-05T01:58:24.724Z,101305.41
2022-08-05T02:00:59.443Z,101307.34
2022-08-05T02:03:38.998Z,101340.56
2022-08-05T02:06:33.548Z,101336.50
2022-08-05T02:08:58.193Z,101307.19
2022-08-05T02:11:32.811Z,101313.69
2022-08-05T02:14:47.937Z,101314.75
2022-08-05T02:18:30.925Z,101343.13
2022-08-05T02:20:26.607Z,101338.16
2022-08-05T02:23:02.327Z,101348.22
2022-08-05T02:25:50.148Z,101351.09
2022-08-05T02:28:29.337Z,101349.50
2022-08-05T02:31:21.945Z,101369.91
2022-08-05T02:34:09.240Z,101367.53
2022-08-05T02:36:45.684Z,101355.72
2022-08-05T02:39:21.457Z,101344.22
2022-08-05T02:42:00.706Z,101340.31
2022-08-05T02:44:31.713Z,101341.28
2022-08-05T02:47:01.057Z,101335.19
2022-08-05T02:49:37.670Z,101330.53
2022-08-05T02:52:29.556Z,101332.97
2022-08-05T02:54:58.723Z,101330.63
2022-08-05T02:58:20.178Z,101329.91
2022-08-05T03:00:17.884Z,101318.41
2022-08-05T03:02:47.742Z,101308.38
2022-08-05T03:05:16.027Z,101316.63
2022-08-05T03:08:06.766Z,101305.50
2022-08-05T03:10:31.557Z,101314.03
2022-08-05T03:15:27.630Z,101331.03
2022-08-05T03:17:57.496Z,101334.38
2022-08-05T03:20:25.135Z,101337.41
2022-08-05T03:22:57.316Z,101335.25
2022-08-05T03:25:33.617Z,101342.09
2022-08-05T03:28:14.520Z,101339.44
2022-08-05T03:30:48.534Z,101350.88
2022-08-05T03:33:16.540Z,101338.63
2022-08-05T03:35:46.671Z,101343.06
2022-08-05T03:38:15.041Z,101342.41
2022-08-05T03:40:48.573Z,101359.56
2022-08-05T03:44:09.947Z,101356.69
2022-08-05T03:46:05.154Z,101373.72
2022-08-05T03:48:36.756Z,101365.44
2022-08-05T03:52:37.772Z,101357.56
2022-08-05T03:55:07.215Z,101356.09
2022-08-05T03:57:41.775Z,101365.91
2022-08-05T04:00:15.956Z,101373.09
2022-08-05T04:02:57.641Z,101367.84
2022-08-05T04:05:35.562Z,101353.78
2022-08-05T04:08:30.235Z,101350.47
2022-08-05T04:10:58.765Z,101352.38
2022-08-05T04:13:27.866Z,101350.84
2022-08-05T04:16:14.777Z,101348.91
2022-08-05T04:18:44.859Z,101345.44
2022-08-05T04:22:05.872Z,101346.06
2022-08-05T04:24:06.211Z,101352.34
2022-08-05T04:26:34.584Z,101355.56
2022-08-05T04:29:07.240Z,101352.09
2022-08-05T04:31:38.591Z,101359.38
2022-08-05T04:34:31.450Z,101365.28
2022-08-05T04:36:53.874Z,101369.47
2022-08-05T04:39:21.125Z,101365.97
2022-08-05T04:41:51.053Z,101375.47
2022-08-05T04:44:21.503Z,101371.13
2022-08-05T04:46:58.785Z,101376.44
2022-08-05T04:49:38.823Z,101375.00
2022-08-05T04:52:15.685Z,101371.94
2022-08-05T04:54:42.852Z,101378.41
2022-08-05T04:57:10.079Z,101383.34
2022-08-05T04:59:40.489Z,101386.50
2022-08-05T05:02:36.766Z,101388.72
2022-08-05T05:05:01.983Z,101385.94
2022-08-05T05:07:32.256Z,101381.44
2022-08-05T05:10:04.417Z,101377.81
2022-08-05T05:12:31.998Z,101368.16
2022-08-05T05:14:59.101Z,101376.50
2022-08-05T05:17:57.142Z,101372.75
2022-08-05T05:20:28.364Z,101372.81
2022-08-05T05:22:58.295Z,101385.25
2022-08-05T05:25:32.673Z,101390.31
2022-08-05T05:28:08.552Z,101395.91
2022-08-05T05:30:37.223Z,101399.47
2022-08-05T05:33:14.006Z,101401.06
2022-08-05T05:35:45.278Z,101407.50
2022-08-05T05:38:14.018Z,101400.38
2022-08-05T05:40:49.442Z,101406.50
2022-08-05T05:43:28.114Z,101406.94
2022-08-05T05:46:05.103Z,101406.41
2022-08-05T05:48:32.935Z,101406.28
2022-08-05T05:51:14.804Z,101407.16
2022-08-05T05:53:54.222Z,101410.66
2022-08-05T05:56:32.386Z,101410.53
2022-08-05T05:59:06.390Z,101413.19
2022-08-05T06:01:40.793Z,101420.44
2022-08-05T06:04:24.747Z,101426.38
2022-08-05T06:06:51.834Z,101419.19
2022-08-05T06:09:25.831Z,101420.09
2022-08-05T06:12:06.920Z,101414.81
2022-08-05T06:14:37.013Z,101418.06
2022-08-05T06:17:24.314Z,101427.94
2022-08-05T06:19:56.947Z,101418.94
2022-08-05T06:22:33.481Z,101422.44
2022-08-05T06:25:25.136Z,101421.53
2022-08-05T06:28:11.032Z,101424.88
2022-08-05T06:30:38.014Z,101431.88
2022-08-05T06:33:04.999Z,101425.25
2022-08-05T06:36:08.343Z,101426.91
2022-08-05T06:38:35.593Z,101434.72
2022-08-05T06:41:05.245Z,101447.88
2022-08-05T06:43:58.027Z,101434.66
2022-08-05T06:46:23.170Z,101443.78
2022-08-05T06:48:59.692Z,101452.91
2022-08-05T06:51:29.841Z,101456.63
2022-08-05T06:54:04.138Z,101462.50
2022-08-05T06:56:34.437Z,101465.00
2022-08-05T06:59:08.653Z,101464.44
2022-08-05T07:01:37.237Z,101461.81
2022-08-05T07:04:08.099Z,101462.09
2022-08-05T07:06:35.166Z,101460.81
2022-08-05T07:09:03.746Z,101461.75
2022-08-05T07:11:36.800Z,101469.81
2022-08-05T07:14:30.349Z,101459.97
2022-08-05T07:18:01.903Z,101468.44
2022-08-05T07:22:42.192Z,101470.88
2022-08-05T07:25:53.887Z,101477.63
2022-08-05T07:28:03.794Z,101480.88
2022-08-05T07:30:38.349Z,101483.34
2022-08-05T07:33:16.587Z,101475.75
2022-08-05T07:36:03.088Z,101492.25
2022-08-05T07:38:43.549Z,101499.63
2022-08-05T07:42:13.074Z,101488.91
2022-08-05T07:44:18.824Z,101494.09
2022-08-05T07:46:49.346Z,101493.53
2022-08-05T07:49:18.232Z,101493.25
2022-08-05T07:51:54.603Z,101497.59
2022-08-05T07:54:31.227Z,101499.38
2022-08-05T07:57:22.478Z,101504.19
2022-08-05T07:59:52.262Z,101498.94
2022-08-05T08:02:26.739Z,101505.72
2022-08-05T08:05:00.082Z,101504.66
2022-08-05T08:07:28.360Z,101505.31
2022-08-05T08:09:55.834Z,101512.25
2022-08-05T08:12:35.520Z,101497.31
2022-08-05T08:15:13.933Z,101506.22
2022-08-05T08:17:50.592Z,101513.41
2022-08-05T08:20:59.740Z,101505.66
2022-08-05T08:24:01.070Z,101506.69
2022-08-05T08:26:02.473Z,101513.81
2022-08-05T08:28:36.849Z,101506.97
2022-08-05T08:31:07.972Z,101518.78
2022-08-05T08:33:35.971Z,101521.97
2022-08-05T08:38:56.166Z,101519.94
2022-08-05T08:41:51.239Z,101528.19
2022-08-05T08:45:21.421Z,101532.25
2022-08-05T08:47:46.970Z,101542.53
2022-08-05T08:50:23.315Z,101537.72
2022-08-05T08:52:56.838Z,101549.66
2022-08-05T08:56:02.150Z,101541.34
2022-08-05T08:58:15.031Z,101553.94
2022-08-05T09:00:42.955Z,101558.56
2022-08-05T09:03:12.178Z,101552.91
2022-08-05T09:06:09.221Z,101561.47
2022-08-05T09:08:30.525Z,101570.91
2022-08-05T09:10:58.271Z,101570.94
2022-08-05T09:13:31.708Z,101569.31
2022-08-05T09:16:14.536Z,101571.69
2022-08-05T09:18:44.498Z,101587.50
2022-08-05T09:21:20.688Z,101581.88
2022-08-05T09:24:10.180Z,101587.28
2022-08-05T09:26:37.860Z,101581.00
2022-08-05T09:29:09.671Z,101593.97
2022-08-05T09:32:42.167Z,101584.97
2022-08-05T09:34:26.151Z,101596.09
2022-08-05T09:36:55.574Z,101595.16
2022-08-05T09:39:39.332Z,101588.09
2022-08-05T09:42:13.612Z,101593.09
2022-08-05T09:44:50.525Z,101604.03
2022-08-05T09:47:25.644Z,101610.22
2022-08-05T09:50:02.392Z,101600.19
2022-08-05T09:52:34.245Z,101607.44
2022-08-05T09:55:57.653Z,101608.59
2022-08-05T09:57:59.711Z,101605.66
2022-08-05T10:00:29.556Z,101602.53
2022-08-05T10:02:58.344Z,101607.00
2022-08-05T10:05:28.538Z,101602.19
2022-08-05T10:08:35.319Z,101614.81
2022-08-05T10:10:54.704Z,101615.47
2022-08-05T10:13:47.133Z,101622.16
2022-08-05T10:16:52.435Z,101627.41
2022-08-05T10:19:23.627Z,101613.72
2022-08-05T10:22:09.118Z,101627.53
2022-08-05T10:24:43.011Z,101622.94
2022-08-05T10:27:16.679Z,101624.13
2022-08-05T10:30:07.002Z,101613.63
2022-08-05T10:32:52.142Z,101627.22
2022-08-05T10:35:20.019Z,101632.53
2022-08-05T10:38:01.613Z,101619.72
2022-08-05T10:40:34.209Z,101627.47
2022-08-05T10:43:47.760Z,101646.81
2022-08-05T10:46:18.887Z,101646.69
2022-08-05T10:49:02.720Z,101657.72
2022-08-05T10:52:05.530Z,101661.47
2022-08-05T10:55:02.249Z,101663.81
2022-08-05T10:57:32.008Z,101660.75
2022-08-05T11:00:20.858Z,101680.56
2022-08-05T11:03:25.169Z,101690.59
2022-08-05T11:06:15.579Z,101686.56
2022-08-05T11:09:13.011Z,101693.38
2022-08-05T11:11:52.589Z,101690.78
2022-08-05T11:15:01.241Z,101697.28
2022-08-05T11:17:59.654Z,101694.50
2022-08-05T11:20:46.075Z,101705.50
2022-08-05T11:24:03.383Z,101707.31
2022-08-05T11:26:32.614Z,101694.19
2022-08-05T11:29:06.788Z,101698.63
2022-08-05T11:31:56.561Z,101701.56
2022-08-05T11:34:51.547Z,101700.53
2022-08-05T11:38:29.209Z,101716.00
2022-08-05T11:41:13.834Z,101715.06
2022-08-05T11:44:40.623Z,101715.91
2022-08-05T11:47:11.242Z,101712.13
2022-08-05T11:49:49.865Z,101711.22
2022-08-05T11:52:29.921Z,101725.72
2022-08-05T11:55:07.740Z,101717.19
2022-08-05T11:58:08.301Z,101707.09
2022-08-05T12:00:29.240Z,101718.75
2022-08-05T12:02:57.694Z,101716.44
2022-08-05T12:05:36.047Z,101724.06
2022-08-05T12:08:09.883Z,101731.22
2022-08-05T12:10:45.258Z,101731.59
2022-08-05T12:13:28.203Z,101738.69
2022-08-05T12:16:15.049Z,101738.84
2022-08-05T12:18:49.349Z,101720.91
2022-08-05T12:21:38.942Z,101740.50
2022-08-05T12:24:10.814Z,101740.91
2022-08-05T12:26:53.879Z,101743.75
2022-08-05T12:29:24.165Z,101753.66
2022-08-05T12:31:58.089Z,101745.28
2022-08-05T12:34:37.114Z,101750.19
2022-08-05T12:37:17.370Z,101763.16
2022-08-05T12:39:53.932Z,101771.56
2022-08-05T12:42:25.379Z,101787.31
2022-08-05T12:44:52.651Z,101785.28
2022-08-05T12:47:31.043Z,101793.34
2022-08-05T12:50:01.969Z,101799.94
2022-08-05T12:52:33.853Z,101805.28
2022-08-05T12:55:15.826Z,101803.91
2022-08-05T12:58:39.188Z,101801.69
2022-08-05T13:02:01.454Z,101812.38
2022-08-05T13:03:18.545Z,101817.38
2022-08-05T13:05:48.695Z,101819.72
2022-08-05T13:08:20.241Z,101822.94
2022-08-05T13:10:50.543Z,101829.25
2022-08-05T13:14:04.639Z,101827.84
2022-08-05T13:16:15.340Z,101825.16
2022-08-05T13:18:57.951Z,101829.88
2022-08-05T13:21:28.363Z,101820.97
2022-08-05T13:24:08.821Z,101833.09
2022-08-05T13:26:36.517Z,101836.44
2022-08-05T13:29:05.111Z,101832.09
2022-08-05T13:32:03.451Z,101835.91
2022-08-05T13:34:22.026Z,101833.50
2022-08-05T13:36:53.700Z,101831.81
2022-08-05T13:40:13.378Z,101835.84
2022-08-05T13:42:14.585Z,101836.31
2022-08-05T13:44:46.403Z,101845.09
2022-08-05T13:47:34.738Z,101851.69
2022-08-05T13:50:06.843Z,101849.34
2022-08-05T13:52:38.578Z,101857.78
2022-08-05T13:55:07.417Z,101855.44
2022-08-05T13:57:51.463Z,101851.63
2022-08-05T14:00:27.106Z,101854.25
2022-08-05T14:02:57.304Z,101857.81
2022-08-05T14:05:47.913Z,101856.31
2022-08-05T14:08:21.005Z,101875.50
2022-08-05T14:10:59.828Z,101856.31
2022-08-05T14:13:42.269Z,101866.63
2022-08-05T14:16:11.188Z,101864.63
2022-08-05T14:18:38.682Z,101854.53
2022-08-05T14:22:06.970Z,101862.41
2022-08-05T14:23:53.296Z,101867.25
2022-08-05T14:26:37.026Z,101865.09
2022-08-05T14:29:09.996Z,101866.16
2022-08-05T14:32:02.724Z,101880.78
2022-08-05T14:34:35.627Z,101878.19
2022-08-05T14:37:04.669Z,101873.72
2022-08-05T14:39:50.202Z,101858.16
2022-08-05T14:42:21.830Z,101870.41
2022-08-05T14:44:49.755Z,101862.94
2022-08-05T14:47:17.615Z,101861.34
2022-08-05T14:50:14.189Z,101880.47
2022-08-05T14:52:52.997Z,101882.66
2022-08-05T14:55:20.420Z,101885.38
2022-08-05T14:57:54.771Z,101884.22
2022-08-05T15:00:27.961Z,101886.22
2022-08-05T15:02:55.639Z,101886.38
2022-08-05T15:05:29.784Z,101887.50
2022-08-05T15:08:09.144Z,101895.56
2022-08-05T15:10:46.237Z,101886.84
2022-08-05T15:13:14.348Z,101891.41
2022-08-05T15:15:55.261Z,101882.50
2022-08-05T15:18:24.999Z,101885.91
2022-08-05T15:20:52.111Z,101877.63
2022-08-05T15:23:19.876Z,101879.03
2022-08-05T15:25:53.384Z,101871.81
2022-08-05T15:28:27.348Z,101874.41
2022-08-05T15:30:55.286Z,101881.50
2022-08-05T15:34:04.813Z,101878.44
2022-08-05T15:36:16.786Z,101882.34
2022-08-05T15:38:46.604Z,101879.84
2022-08-05T15:41:22.838Z,101877.28
2022-08-05T15:43:54.671Z,101889.75
2022-08-05T15:46:24.042Z,101891.28
2022-08-05T15:49:01.463Z,101895.44
2022-08-05T15:52:04.356Z,101890.50
2022-08-05T15:54:35.093Z,101891.22
2022-08-05T15:57:07.603Z,101895.03
2022-08-05T15:59:38.250Z,101911.84
2022-08-05T16:02:09.716Z,101901.38
2022-08-05T16:04:43.477Z,101898.47
2022-08-05T16:07:11.454Z,101910.38
2022-08-05T16:09:41.487Z,101909.50
2022-08-05T16:12:09.632Z,101928.91
2022-08-05T16:14:38.596Z,101916.69
2022-08-05T16:17:05.721Z,101922.16
2022-08-05T16:20:04.443Z,101921.41
2022-08-05T16:22:27.511Z,101929.41
2022-08-05T16:25:05.323Z,101930.19
2022-08-05T16:27:59.895Z,101915.38
2022-08-05T16:30:26.038Z,101922.13
2022-08-05T16:32:54.241Z,101921.75
2022-08-05T16:35:27.806Z,101932.16
2022-08-05T16:38:15.171Z,101942.66
2022-08-05T16:40:47.670Z,101932.63
2022-08-05T16:43:19.840Z,101952.81
2022-08-05T16:46:06.669Z,101944.78
2022-08-05T16:48:35.806Z,101947.34
2022-08-05T16:51:08.697Z,101947.63
2022-08-05T16:54:05.421Z,101948.88
2022-08-05T16:56:26.863Z,101947.38
2022-08-05T16:58:54.300Z,101963.34
2022-08-05T17:01:21.582Z,101963.63
2022-08-05T17:03:52.040Z,101964.25
2022-08-05T17:06:20.149Z,101969.47
2022-08-05T17:08:54.180Z,101975.75
2022-08-05T17:11:23.731Z,101977.44
2022-08-05T17:14:00.306Z,101980.78
2022-08-05T17:16:37.802Z,101974.91
2022-08-05T17:19:09.645Z,101990.16
2022-08-05T17:21:39.817Z,101991.47
2022-08-05T17:24:19.810Z,102003.41
2022-08-05T17:26:59.015Z,102005.28
2022-08-05T17:29:33.698Z,102001.00
2022-08-05T17:32:26.128Z,102013.44
2022-08-05T17:34:53.383Z,102004.84
2022-08-05T17:37:40.575Z,102028.53
2022-08-05T17:40:12.349Z,102032.91
2022-08-05T17:42:41.664Z,102020.41
2022-08-05T17:45:20.330Z,102018.38
2022-08-05T17:47:54.451Z,102013.16
2022-08-05T17:50:30.526Z,102025.44
2022-08-05T17:53:05.477Z,102027.94
2022-08-05T17:55:37.170Z,102035.75
2022-08-05T17:58:10.924Z,102051.50
2022-08-05T18:00:47.164Z,102062.03
2022-08-05T18:03:56.259Z,102062.47
2022-08-05T18:06:12.244Z,102060.16
2022-08-05T18:08:45.832Z,102043.94
2022-08-05T18:11:24.131Z,102058.22
2022-08-05T18:13:57.110Z,102051.00
2022-08-05T18:16:26.722Z,102063.00
2022-08-05T18:18:53.818Z,102070.00
2022-08-05T18:21:23.026Z,102066.97
2022-08-05T18:23:54.318Z,102071.78
2022-08-05T18:26:29.209Z,102068.34
2022-08-05T18:28:59.839Z,102086.22
2022-08-05T18:31:32.916Z,102079.25
2022-08-05T18:34:06.057Z,102095.69
2022-08-05T18:36:35.422Z,102091.31
2022-08-05T18:39:06.552Z,102087.88
2022-08-05T18:41:55.344Z,102095.03
2022-08-05T18:44:33.376Z,102097.28
2022-08-05T18:47:03.898Z,102091.84
2022-08-05T18:49:57.897Z,102101.41
2022-08-05T18:52:33.695Z,102102.44
2022-08-05T18:55:06.225Z,102098.44
2022-08-05T18:57:50.209Z,102108.19
2022-08-05T19:00:28.774Z,102112.78
2022-08-05T19:02:57.845Z,102128.06
2022-08-05T19:06:12.871Z,102122.66
2022-08-05T19:08:19.276Z,102124.59
2022-08-05T19:10:50.471Z,102126.31
2022-08-05T19:13:18.351Z,102135.22
2022-08-05T19:16:00.165Z,102140.66
2022-08-05T19:18:30.658Z,102134.72
2022-08-05T19:20:59.607Z,102144.56
2022-08-05T19:24:05.456Z,102147.16
2022-08-05T19:26:16.554Z,102146.38
2022-08-05T19:28:43.929Z,102148.25
2022-08-05T19:31:17.715Z,102145.59
2022-08-05T19:33:48.537Z,102148.28
2022-08-05T19:36:26.745Z,102158.00
2022-08-05T19:39:01.046Z,102151.09
2022-08-05T19:41:57.976Z,102160.97
2022-08-05T19:44:18.678Z,102161.03
2022-08-05T19:46:46.457Z,102167.25
2022-08-05T19:49:16.552Z,102162.91
2022-08-05T19:52:05.667Z,102170.03
2022-08-05T19:54:32.866Z,102176.25
2022-08-05T19:57:08.645Z,102175.34
2022-08-05T19:59:56.736Z,102176.25
2022-08-05T20:02:30.456Z,102183.41
2022-08-05T20:04:59.792Z,102177.25
2022-08-05T20:07:46.214Z,102188.78
2022-08-05T20:10:16.681Z,102185.22
2022-08-05T20:12:46.077Z,102187.06
2022-08-05T20:15:48.782Z,102183.53
2022-08-05T20:18:10.470Z,102187.09
2022-08-05T20:20:55.296Z,102198.59
2022-08-05T20:23:40.569Z,102203.97
2022-08-05T20:26:16.485Z,102204.88
2022-08-05T20:28:48.569Z,102202.19
2022-08-05T20:31:17.450Z,102207.56
2022-08-05T20:33:49.361Z,102210.25
2022-08-05T20:36:17.978Z,102213.81
2022-08-05T20:38:54.461Z,102214.75
2022-08-05T20:41:44.472Z,102211.19
2022-08-05T20:44:19.418Z,102214.75
2022-08-05T20:47:01.953Z,102212.06
2022-08-05T20:49:37.772Z,102214.75
2022-08-05T20:52:07.294Z,102220.03
2022-08-05T20:54:43.288Z,102218.28
2022-08-05T20:57:24.905Z,102224.47
2022-08-05T21:00:41.204Z,102227.09
2022-08-05T21:03:06.356Z,102233.28
2022-08-05T21:05:47.654Z,102229.78
2022-08-05T21:08:26.804Z,102238.63
2022-08-05T21:11:00.483Z,102239.50
2022-08-05T21:13:55.758Z,102243.88
2022-08-05T21:16:19.392Z,102243.00
2022-08-05T21:18:46.455Z,102246.53
2022-08-05T21:21:14.735Z,102245.66
2022-08-05T21:23:42.756Z,102251.88
2022-08-05T21:26:14.381Z,102249.19
2022-08-05T21:28:47.727Z,102256.22
2022-08-05T21:31:18.334Z,102263.28
2022-08-05T21:33:47.874Z,102269.47
2022-08-05T21:36:27.754Z,102261.47
2022-08-05T21:38:57.381Z,102271.22
2022-08-05T21:41:26.055Z,102270.28
2022-08-05T21:44:04.192Z,102274.66
2022-08-05T21:46:34.214Z,102281.72
2022-08-05T21:49:04.768Z,102274.56
2022-08-05T21:52:15.781Z,102277.97
2022-08-05T21:54:30.731Z,102281.56
2022-08-05T21:57:29.782Z,102282.28
2022-08-05T22:00:03.892Z,102284.97
2022-08-05T22:02:33.852Z,102286.75
2022-08-05T22:05:00.936Z,102292.88
2022-08-05T22:07:39.851Z,102290.09
2022-08-05T22:10:17.792Z,102289.28
2022-08-05T22:14:05.027Z,102291.13
2022-08-05T22:16:00.595Z,102288.34
2022-08-05T22:18:31.911Z,102293.72
2022-08-05T22:20:59.198Z,102296.22
2022-08-05T22:24:02.034Z,102305.94
2022-08-05T22:26:49.745Z,102299.59
2022-08-05T22:29:18.814Z,102305.78
2022-08-05T22:31:55.352Z,102313.72
2022-08-05T22:34:29.046Z,102314.41
2022-08-05T22:36:58.719Z,102313.34
2022-08-05T22:39:33.404Z,102307.31
2022-08-05T22:42:12.553Z,102316.00
2022-08-05T22:44:48.201Z,102328.44
2022-08-05T22:47:29.217Z,102325.63
2022-08-05T22:50:22.860Z,102321.19
2022-08-05T22:52:51.332Z,102317.69
2022-08-05T22:55:21.396Z,102325.44
2022-08-05T22:57:53.172Z,102326.28
2022-08-05T23:00:22.605Z,102329.72
2022-08-05T23:02:52.109Z,102335.78
2022-08-05T23:05:22.234Z,102332.16
2022-08-05T23:07:50.962Z,102339.31
2022-08-05T23:10:20.873Z,102341.84
2022-08-05T23:12:55.105Z,102343.63
2022-08-05T23:15:27.124Z,102349.88
2022-08-05T23:18:00.850Z,102357.81
2022-08-05T23:20:37.207Z,102350.75
2022-08-05T23:23:08.006Z,102355.69
2022-08-05T23:25:52.477Z,102360.78
2022-08-05T23:28:28.923Z,102360.75
2022-08-05T23:31:16.620Z,102363.16
2022-08-05T23:34:05.613Z,102368.47
2022-08-05T23:36:38.789Z,102370.34
2022-08-05T23:39:17.544Z,102366.78
2022-08-05T23:41:59.901Z,102376.34
2022-08-05T23:44:28.059Z,102376.22
2022-08-05T23:47:02.550Z,102374.34
2022-08-05T23:49:45.668Z,102378.31
2022-08-05T23:52:32.679Z,102376.81
2022-08-05T23:55:09.638Z,102381.78
2022-08-05T23:57:38.091Z,102383.44
